sensor_id;sensor_type;location;lat;lon;timestamp;temperature;humidity
3360;DHT22;1693;49.602;11.046;2022-10-13T00:00:01;9.20;99.90
3360;DHT22;1693;49.602;11.046;2022-10-13T00:02:28;9.20;99.90
3360;DHT22;1693;49.602;11.046;2022-10-13T00:04:55;9.30;99.90
3360;DHT22;1693;49.602;11.046;2022-10-13T00:07:23;9.20;99.90
3360;DHT22;1693;49.602;11.046;2022-10-13T00:09:50;9.20;99.90
3360;DHT22;1693;49.602;11.046;2022-10-13T00:12:17;9.10;99.90
3360;DHT22;1693;49.602;11.046;2022-10-13T00:14:45;9.20;99.90
3360;DHT22;1693;49.602;11.046;2022-10-13T00:17:12;9.20;99.90
3360;DHT22;1693;49.602;11.046;2022-10-13T00:19:39;9.20;99.90
3360;DHT22;1693;49.602;11.046;2022-10-13T00:22:06;9.20;99.90
3360;DHT22;1693;49.602;11.046;2022-10-13T00:24:33;9.10;99.90
3360;DHT22;1693;49.602;11.046;2022-10-13T00:27:00;9.00;99.90
3360;DHT22;1693;49.602;11.046;2022-10-13T00:29:27;9.10;99.90
3360;DHT22;1693;49.602;11.046;2022-10-13T00:31:56;9.00;99.90
3360;DHT22;1693;49.602;11.046;2022-10-13T00:34:23;9.00;99.90
3360;DHT22;1693;49.602;11.046;2022-10-13T00:36:50;9.10;99.90
3360;DHT22;1693;49.602;11.046;2022-10-13T00:39:17;9.00;99.90
3360;DHT22;1693;49.602;11.046;2022-10-13T00:41:44;8.90;99.90
3360;DHT22;1693;49.602;11.046;2022-10-13T00:47:13;9.00;99.90
3360;DHT22;1693;49.602;11.046;2022-10-13T00:49:39;9.00;99.90
3360;DHT22;1693;49.602;11.046;2022-10-13T00:52:06;8.90;99.90
3360;DHT22;1693;49.602;11.046;2022-10-13T00:54:33;9.00;99.90
3360;DHT22;1693;49.602;11.046;2022-10-13T00:57:02;8.90;99.90
3360;DHT22;1693;49.602;11.046;2022-10-13T00:59:30;8.90;99.90
3360;DHT22;1693;49.602;11.046;2022-10-13T01:01:57;8.90;99.90
3360;DHT22;1693;49.602;11.046;2022-10-13T01:04:30;8.90;99.90
3360;DHT22;1693;49.602;11.046;2022-10-13T01:07:02;8.80;99.90
3360;DHT22;1693;49.602;11.046;2022-10-13T01:09:30;8.70;99.90
3360;DHT22;1693;49.602;11.046;2022-10-13T01:12:07;8.70;99.90
3360;DHT22;1693;49.602;11.046;2022-10-13T01:14:45;8.70;99.90
3360;DHT22;1693;49.602;11.046;2022-10-13T01:17:20;8.70;99.90
3360;DHT22;1693;49.602;11.046;2022-10-13T01:23:13;8.70;99.90
3360;DHT22;1693;49.602;11.046;2022-10-13T01:25:56;8.70;99.90
3360;DHT22;1693;49.602;11.046;2022-10-13T01:28:39;8.60;99.90
3360;DHT22;1693;49.602;11.046;2022-10-13T01:31:14;8.60;99.90
3360;DHT22;1693;49.602;11.046;2022-10-13T01:33:48;8.60;99.90
3360;DHT22;1693;49.602;11.046;2022-10-13T01:36:23;8.60;99.90
3360;DHT22;1693;49.602;11.046;2022-10-13T01:38:55;8.60;99.90
3360;DHT22;1693;49.602;11.046;2022-10-13T01:41:30;8.70;99.90
3360;DHT22;1693;49.602;11.046;2022-10-13T01:44:02;8.70;99.90
3360;DHT22;1693;49.602;11.046;2022-10-13T01:46:34;8.60;99.90
3360;DHT22;1693;49.602;11.046;2022-10-13T01:49:04;8.70;99.90
3360;DHT22;1693;49.602;11.046;2022-10-13T01:51:33;8.70;99.90
3360;DHT22;1693;49.602;11.046;2022-10-13T01:54:01;8.80;99.90
3360;DHT22;1693;49.602;11.046;2022-10-13T01:56:29;8.70;99.90
3360;DHT22;1693;49.602;11.046;2022-10-13T01:59:00;8.80;99.90
3360;DHT22;1693;49.602;11.046;2022-10-13T02:01:42;8.80;99.90
3360;DHT22;1693;49.602;11.046;2022-10-13T02:04:22;8.90;99.90
3360;DHT22;1693;49.602;11.046;2022-10-13T02:06:58;9.00;99.90
3360;DHT22;1693;49.602;11.046;2022-10-13T02:09:42;8.90;99.90
3360;DHT22;1693;49.602;11.046;2022-10-13T02:12:17;8.90;99.90
3360;DHT22;1693;49.602;11.046;2022-10-13T02:14:46;8.90;99.90
3360;DHT22;1693;49.602;11.046;2022-10-13T02:17:16;9.00;99.90
3360;DHT22;1693;49.602;11.046;2022-10-13T02:19:44;9.10;99.90
3360;DHT22;1693;49.602;11.046;2022-10-13T02:22:14;9.10;99.90
3360;DHT22;1693;49.602;11.046;2022-10-13T02:24:41;9.10;99.90
3360;DHT22;1693;49.602;11.046;2022-10-13T02:27:09;9.10;99.90
3360;DHT22;1693;49.602;11.046;2022-10-13T02:29:48;9.20;99.90
3360;DHT22;1693;49.602;11.046;2022-10-13T02:32:16;9.30;99.90
3360;DHT22;1693;49.602;11.046;2022-10-13T02:34:43;9.30;99.90
3360;DHT22;1693;49.602;11.046;2022-10-13T02:37:10;9.30;99.90
3360;DHT22;1693;49.602;11.046;2022-10-13T02:39:37;9.50;99.90
3360;DHT22;1693;49.602;11.046;2022-10-13T02:42:05;9.40;99.90
3360;DHT22;1693;49.602;11.046;2022-10-13T02:44:32;9.50;99.90
3360;DHT22;1693;49.602;11.046;2022-10-13T02:46:59;9.30;99.90
3360;DHT22;1693;49.602;11.046;2022-10-13T02:49:28;9.20;99.90
3360;DHT22;1693;49.602;11.046;2022-10-13T02:51:55;9.20;99.90
3360;DHT22;1693;49.602;11.046;2022-10-13T02:54:22;9.20;99.90
3360;DHT22;1693;49.602;11.046;2022-10-13T02:56:49;9.20;99.90
3360;DHT22;1693;49.602;11.046;2022-10-13T02:59:17;9.20;99.90
3360;DHT22;1693;49.602;11.046;2022-10-13T03:01:44;9.20;99.90
3360;DHT22;1693;49.602;11.046;2022-10-13T03:04:11;9.20;99.90
3360;DHT22;1693;49.602;11.046;2022-10-13T03:06:39;9.20;99.90
3360;DHT22;1693;49.602;11.046;2022-10-13T03:09:06;9.30;99.90
3360;DHT22;1693;49.602;11.046;2022-10-13T03:11:33;9.30;99.90
3360;DHT22;1693;49.602;11.046;2022-10-13T03:14:00;9.30;99.90
3360;DHT22;1693;49.602;11.046;2022-10-13T03:16:27;9.30;99.90
3360;DHT22;1693;49.602;11.046;2022-10-13T03:18:54;9.30;99.90
3360;DHT22;1693;49.602;11.046;2022-10-13T03:21:21;9.30;99.90
3360;DHT22;1693;49.602;11.046;2022-10-13T03:23:50;9.30;99.90
3360;DHT22;1693;49.602;11.046;2022-10-13T03:26:17;9.30;99.90
3360;DHT22;1693;49.602;11.046;2022-10-13T03:28:48;9.30;99.90
3360;DHT22;1693;49.602;11.046;2022-10-13T03:31:16;9.40;99.90
3360;DHT22;1693;49.602;11.046;2022-10-13T03:33:44;9.30;99.90
3360;DHT22;1693;49.602;11.046;2022-10-13T03:36:11;9.40;99.90
3360;DHT22;1693;49.602;11.046;2022-10-13T03:38:39;9.40;99.90
3360;DHT22;1693;49.602;11.046;2022-10-13T03:41:10;9.40;99.90
3360;DHT22;1693;49.602;11.046;2022-10-13T03:43:37;9.40;99.90
3360;DHT22;1693;49.602;11.046;2022-10-13T03:46:05;9.50;99.90
3360;DHT22;1693;49.602;11.046;2022-10-13T03:48:34;9.50;99.90
3360;DHT22;1693;49.602;11.046;2022-10-13T03:51:04;9.50;99.90
3360;DHT22;1693;49.602;11.046;2022-10-13T03:53:31;9.50;99.90
3360;DHT22;1693;49.602;11.046;2022-10-13T03:55:58;9.50;99.90
3360;DHT22;1693;49.602;11.046;2022-10-13T03:58:26;9.50;99.90
3360;DHT22;1693;49.602;11.046;2022-10-13T04:00:55;9.50;99.90
3360;DHT22;1693;49.602;11.046;2022-10-13T04:03:24;9.60;99.90
3360;DHT22;1693;49.602;11.046;2022-10-13T04:05:59;9.70;99.90
3360;DHT22;1693;49.602;11.046;2022-10-13T04:08:31;9.60;99.90
3360;DHT22;1693;49.602;11.046;2022-10-13T04:11:00;9.70;99.90
3360;DHT22;1693;49.602;11.046;2022-10-13T04:13:28;9.70;99.90
3360;DHT22;1693;49.602;11.046;2022-10-13T04:16:01;9.70;99.90
3360;DHT22;1693;49.602;11.046;2022-10-13T04:18:28;9.80;99.90
3360;DHT22;1693;49.602;11.046;2022-10-13T04:20:55;9.80;99.90
3360;DHT22;1693;49.602;11.046;2022-10-13T04:23:22;9.90;99.90
3360;DHT22;1693;49.602;11.046;2022-10-13T04:25:50;9.90;99.90
3360;DHT22;1693;49.602;11.046;2022-10-13T04:28:17;10.00;99.90
3360;DHT22;1693;49.602;11.046;2022-10-13T04:30:46;10.00;99.90
3360;DHT22;1693;49.602;11.046;2022-10-13T04:33:13;10.00;99.90
3360;DHT22;1693;49.602;11.046;2022-10-13T04:35:40;10.00;99.90
3360;DHT22;1693;49.602;11.046;2022-10-13T04:38:07;10.00;99.90
3360;DHT22;1693;49.602;11.046;2022-10-13T04:40:35;10.00;99.90
3360;DHT22;1693;49.602;11.046;2022-10-13T04:43:02;10.00;99.90
3360;DHT22;1693;49.602;11.046;2022-10-13T04:45:29;9.90;99.90
3360;DHT22;1693;49.602;11.046;2022-10-13T04:47:59;9.90;99.90
3360;DHT22;1693;49.602;11.046;2022-10-13T04:50:26;9.80;99.90
3360;DHT22;1693;49.602;11.046;2022-10-13T04:52:53;9.80;99.90
3360;DHT22;1693;49.602;11.046;2022-10-13T04:55:20;9.80;99.90
3360;DHT22;1693;49.602;11.046;2022-10-13T04:57:47;9.80;99.90
3360;DHT22;1693;49.602;11.046;2022-10-13T05:00:14;9.80;99.90
3360;DHT22;1693;49.602;11.046;2022-10-13T05:02:41;9.90;99.90
3360;DHT22;1693;49.602;11.046;2022-10-13T05:05:10;9.90;99.90
3360;DHT22;1693;49.602;11.046;2022-10-13T05:07:37;9.90;99.90
3360;DHT22;1693;49.602;11.046;2022-10-13T05:10:05;10.00;99.90
3360;DHT22;1693;49.602;11.046;2022-10-13T05:12:32;10.00;99.90
3360;DHT22;1693;49.602;11.046;2022-10-13T05:15:07;10.00;99.90
3360;DHT22;1693;49.602;11.046;2022-10-13T05:17:52;10.00;99.90
3360;DHT22;1693;49.602;11.046;2022-10-13T05:20:37;9.90;99.90
3360;DHT22;1693;49.602;11.046;2022-10-13T05:23:06;10.00;99.90
3360;DHT22;1693;49.602;11.046;2022-10-13T05:25:33;10.00;99.90
3360;DHT22;1693;49.602;11.046;2022-10-13T05:28:00;10.10;99.90
3360;DHT22;1693;49.602;11.046;2022-10-13T05:30:28;10.10;99.90
3360;DHT22;1693;49.602;11.046;2022-10-13T05:32:54;10.30;99.90
3360;DHT22;1693;49.602;11.046;2022-10-13T05:35:22;10.30;99.90
3360;DHT22;1693;49.602;11.046;2022-10-13T05:37:51;10.30;99.90
3360;DHT22;1693;49.602;11.046;2022-10-13T05:40:18;10.40;99.90
3360;DHT22;1693;49.602;11.046;2022-10-13T05:42:46;10.50;99.90
3360;DHT22;1693;49.602;11.046;2022-10-13T05:45:14;10.60;99.90
3360;DHT22;1693;49.602;11.046;2022-10-13T05:47:41;10.60;99.90
3360;DHT22;1693;49.602;11.046;2022-10-13T05:50:10;10.70;99.90
3360;DHT22;1693;49.602;11.046;2022-10-13T05:52:40;10.80;99.90
3360;DHT22;1693;49.602;11.046;2022-10-13T05:55:45;10.70;99.90
3360;DHT22;1693;49.602;11.046;2022-10-13T05:58:32;10.80;99.90
3360;DHT22;1693;49.602;11.046;2022-10-13T06:01:01;10.90;99.90
3360;DHT22;1693;49.602;11.046;2022-10-13T06:03:30;11.10;99.90
3360;DHT22;1693;49.602;11.046;2022-10-13T06:05:58;11.20;99.90
3360;DHT22;1693;49.602;11.046;2022-10-13T06:08:25;11.30;99.90
3360;DHT22;1693;49.602;11.046;2022-10-13T06:10:54;11.40;99.90
3360;DHT22;1693;49.602;11.046;2022-10-13T06:13:21;11.50;99.90
3360;DHT22;1693;49.602;11.046;2022-10-13T06:15:48;11.40;99.90
3360;DHT22;1693;49.602;11.046;2022-10-13T06:18:15;11.40;99.90
3360;DHT22;1693;49.602;11.046;2022-10-13T06:20:42;11.60;99.90
3360;DHT22;1693;49.602;11.046;2022-10-13T06:23:09;11.60;99.90
3360;DHT22;1693;49.602;11.046;2022-10-13T06:25:36;11.60;99.90
3360;DHT22;1693;49.602;11.046;2022-10-13T06:28:04;11.80;99.90
3360;DHT22;1693;49.602;11.046;2022-10-13T06:30:31;11.90;99.90
3360;DHT22;1693;49.602;11.046;2022-10-13T06:32:58;12.00;99.90
3360;DHT22;1693;49.602;11.046;2022-10-13T06:35:25;12.00;99.90
3360;DHT22;1693;49.602;11.046;2022-10-13T06:37:53;11.80;99.90
3360;DHT22;1693;49.602;11.046;2022-10-13T06:40:22;11.90;99.90
3360;DHT22;1693;49.602;11.046;2022-10-13T06:42:50;11.90;99.90
3360;DHT22;1693;49.602;11.046;2022-10-13T06:45:19;12.00;99.90
3360;DHT22;1693;49.602;11.046;2022-10-13T06:47:48;11.90;99.90
3360;DHT22;1693;49.602;11.046;2022-10-13T06:50:15;12.00;99.90
3360;DHT22;1693;49.602;11.046;2022-10-13T06:52:42;12.10;99.90
3360;DHT22;1693;49.602;11.046;2022-10-13T06:55:09;12.10;99.90
3360;DHT22;1693;49.602;11.046;2022-10-13T06:57:36;12.20;99.90
3360;DHT22;1693;49.602;11.046;2022-10-13T07:00:05;12.20;99.90
3360;DHT22;1693;49.602;11.046;2022-10-13T07:02:34;12.20;99.90
3360;DHT22;1693;49.602;11.046;2022-10-13T07:05:00;12.10;99.90
3360;DHT22;1693;49.602;11.046;2022-10-13T07:07:27;12.20;99.90
3360;DHT22;1693;49.602;11.046;2022-10-13T07:09:54;12.40;99.90
3360;DHT22;1693;49.602;11.046;2022-10-13T07:12:21;12.50;99.90
3360;DHT22;1693;49.602;11.046;2022-10-13T07:14:48;12.40;99.90
3360;DHT22;1693;49.602;11.046;2022-10-13T07:17:15;12.50;99.90
3360;DHT22;1693;49.602;11.046;2022-10-13T07:19:44;12.60;99.90
3360;DHT22;1693;49.602;11.046;2022-10-13T07:22:13;12.70;99.90
3360;DHT22;1693;49.602;11.046;2022-10-13T07:24:40;12.60;99.90
3360;DHT22;1693;49.602;11.046;2022-10-13T07:27:08;12.60;99.90
3360;DHT22;1693;49.602;11.046;2022-10-13T07:29:35;12.70;99.90
3360;DHT22;1693;49.602;11.046;2022-10-13T07:32:02;12.60;99.90
3360;DHT22;1693;49.602;11.046;2022-10-13T07:34:29;12.60;99.90
3360;DHT22;1693;49.602;11.046;2022-10-13T07:36:57;12.70;99.90
3360;DHT22;1693;49.602;11.046;2022-10-13T07:39:25;12.70;99.90
3360;DHT22;1693;49.602;11.046;2022-10-13T07:41:51;12.70;99.90
3360;DHT22;1693;49.602;11.046;2022-10-13T07:44:18;12.70;99.90
3360;DHT22;1693;49.602;11.046;2022-10-13T07:46:45;12.60;99.90
3360;DHT22;1693;49.602;11.046;2022-10-13T07:49:12;12.60;99.90
3360;DHT22;1693;49.602;11.046;2022-10-13T07:51:39;12.50;99.90
3360;DHT22;1693;49.602;11.046;2022-10-13T07:54:09;12.50;99.90
3360;DHT22;1693;49.602;11.046;2022-10-13T07:56:36;12.30;99.90
3360;DHT22;1693;49.602;11.046;2022-10-13T07:59:03;12.30;99.90
3360;DHT22;1693;49.602;11.046;2022-10-13T08:01:32;12.40;99.90
3360;DHT22;1693;49.602;11.046;2022-10-13T08:03:59;12.40;99.90
3360;DHT22;1693;49.602;11.046;2022-10-13T08:06:26;12.40;99.90
3360;DHT22;1693;49.602;11.046;2022-10-13T08:08:53;12.30;99.90
3360;DHT22;1693;49.602;11.046;2022-10-13T08:11:24;12.40;99.90
3360;DHT22;1693;49.602;11.046;2022-10-13T08:13:51;12.50;99.90
3360;DHT22;1693;49.602;11.046;2022-10-13T08:16:18;12.60;99.90
3360;DHT22;1693;49.602;11.046;2022-10-13T08:18:46;12.80;99.90
3360;DHT22;1693;49.602;11.046;2022-10-13T08:21:15;12.90;99.90
3360;DHT22;1693;49.602;11.046;2022-10-13T08:23:43;12.90;99.90
3360;DHT22;1693;49.602;11.046;2022-10-13T08:26:15;13.10;99.90
3360;DHT22;1693;49.602;11.046;2022-10-13T08:28:45;13.10;99.90
3360;DHT22;1693;49.602;11.046;2022-10-13T08:31:12;13.20;99.90
3360;DHT22;1693;49.602;11.046;2022-10-13T08:33:39;13.20;99.90
3360;DHT22;1693;49.602;11.046;2022-10-13T08:36:07;13.20;99.90
3360;DHT22;1693;49.602;11.046;2022-10-13T08:38:34;13.40;99.90
3360;DHT22;1693;49.602;11.046;2022-10-13T08:41:01;13.50;99.90
3360;DHT22;1693;49.602;11.046;2022-10-13T08:43:29;13.40;99.90
3360;DHT22;1693;49.602;11.046;2022-10-13T08:45:59;13.40;99.90
3360;DHT22;1693;49.602;11.046;2022-10-13T08:48:30;13.30;99.90
3360;DHT22;1693;49.602;11.046;2022-10-13T08:51:01;13.10;99.90
3360;DHT22;1693;49.602;11.046;2022-10-13T08:53:33;13.00;99.90
3360;DHT22;1693;49.602;11.046;2022-10-13T08:56:06;13.00;99.90
3360;DHT22;1693;49.602;11.046;2022-10-13T08:58:35;13.10;99.90
3360;DHT22;1693;49.602;11.046;2022-10-13T09:01:13;13.10;99.90
3360;DHT22;1693;49.602;11.046;2022-10-13T09:03:48;12.90;99.90
3360;DHT22;1693;49.602;11.046;2022-10-13T09:06:19;13.10;99.90
3360;DHT22;1693;49.602;11.046;2022-10-13T09:08:54;13.10;99.90
3360;DHT22;1693;49.602;11.046;2022-10-13T09:11:22;13.10;99.90
3360;DHT22;1693;49.602;11.046;2022-10-13T09:13:53;13.20;99.90
3360;DHT22;1693;49.602;11.046;2022-10-13T09:16:35;13.10;99.90
3360;DHT22;1693;49.602;11.046;2022-10-13T09:19:25;13.30;99.90
3360;DHT22;1693;49.602;11.046;2022-10-13T09:22:18;13.30;99.90
3360;DHT22;1693;49.602;11.046;2022-10-13T09:24:46;13.40;99.90
3360;DHT22;1693;49.602;11.046;2022-10-13T09:27:17;13.30;99.90
3360;DHT22;1693;49.602;11.046;2022-10-13T09:29:44;13.20;99.90
3360;DHT22;1693;49.602;11.046;2022-10-13T09:32:16;13.00;99.90
3360;DHT22;1693;49.602;11.046;2022-10-13T09:34:44;13.10;99.90
3360;DHT22;1693;49.602;11.046;2022-10-13T09:37:19;13.30;99.90
3360;DHT22;1693;49.602;11.046;2022-10-13T09:39:59;13.40;99.90
3360;DHT22;1693;49.602;11.046;2022-10-13T09:42:30;13.50;99.90
3360;DHT22;1693;49.602;11.046;2022-10-13T09:44:58;13.60;99.90
3360;DHT22;1693;49.602;11.046;2022-10-13T09:47:29;13.80;99.90
3360;DHT22;1693;49.602;11.046;2022-10-13T09:50:00;14.10;99.90
3360;DHT22;1693;49.602;11.046;2022-10-13T09:52:28;14.20;99.90
3360;DHT22;1693;49.602;11.046;2022-10-13T09:54:57;14.40;99.90
3360;DHT22;1693;49.602;11.046;2022-10-13T09:57:33;14.50;99.90
3360;DHT22;1693;49.602;11.046;2022-10-13T10:00:09;14.20;99.90
3360;DHT22;1693;49.602;11.046;2022-10-13T10:02:44;14.10;99.90
3360;DHT22;1693;49.602;11.046;2022-10-13T10:05:22;14.10;99.90
3360;DHT22;1693;49.602;11.046;2022-10-13T10:07:50;14.10;99.90
3360;DHT22;1693;49.602;11.046;2022-10-13T10:10:35;14.10;99.90
3360;DHT22;1693;49.602;11.046;2022-10-13T10:13:06;14.10;99.90
3360;DHT22;1693;49.602;11.046;2022-10-13T10:15:42;14.10;99.90
3360;DHT22;1693;49.602;11.046;2022-10-13T10:18:16;14.20;99.90
3360;DHT22;1693;49.602;11.046;2022-10-13T10:20:53;14.30;99.90
3360;DHT22;1693;49.602;11.046;2022-10-13T10:23:28;14.50;99.90
3360;DHT22;1693;49.602;11.046;2022-10-13T10:26:00;14.70;99.90
3360;DHT22;1693;49.602;11.046;2022-10-13T10:28:42;15.10;99.90
3360;DHT22;1693;49.602;11.046;2022-10-13T10:31:29;15.20;99.90
3360;DHT22;1693;49.602;11.046;2022-10-13T10:34:25;15.30;99.90
3360;DHT22;1693;49.602;11.046;2022-10-13T10:37:04;15.20;99.90
3360;DHT22;1693;49.602;11.046;2022-10-13T10:39:42;15.50;99.90
3360;DHT22;1693;49.602;11.046;2022-10-13T10:42:24;15.60;99.90
3360;DHT22;1693;49.602;11.046;2022-10-13T10:44:54;15.50;99.90
3360;DHT22;1693;49.602;11.046;2022-10-13T10:47:25;15.40;99.90
3360;DHT22;1693;49.602;11.046;2022-10-13T10:49:59;15.50;99.90
3360;DHT22;1693;49.602;11.046;2022-10-13T10:52:35;15.60;99.90
3360;DHT22;1693;49.602;11.046;2022-10-13T10:55:17;15.60;99.90
3360;DHT22;1693;49.602;11.046;2022-10-13T10:57:55;15.70;99.90
3360;DHT22;1693;49.602;11.046;2022-10-13T11:00:25;15.80;99.90
3360;DHT22;1693;49.602;11.046;2022-10-13T11:02:59;15.90;99.90
3360;DHT22;1693;49.602;11.046;2022-10-13T11:05:58;15.70;99.90
3360;DHT22;1693;49.602;11.046;2022-10-13T11:08:26;16.00;99.90
3360;DHT22;1693;49.602;11.046;2022-10-13T11:16:28;16.50;99.90
3360;DHT22;1693;49.602;11.046;2022-10-13T11:18:58;16.50;99.90
3360;DHT22;1693;49.602;11.046;2022-10-13T11:27:44;16.40;99.90
3360;DHT22;1693;49.602;11.046;2022-10-13T11:30:43;16.60;99.90
3360;DHT22;1693;49.602;11.046;2022-10-13T11:43:01;17.00;99.90
3360;DHT22;1693;49.602;11.046;2022-10-13T11:49:26;17.30;99.90
3360;DHT22;1693;49.602;11.046;2022-10-13T11:55:10;17.40;99.90
3360;DHT22;1693;49.602;11.046;2022-10-13T11:57:41;17.30;99.90
3360;DHT22;1693;49.602;11.046;2022-10-13T12:00:13;17.10;99.90
3360;DHT22;1693;49.602;11.046;2022-10-13T12:02:47;17.30;99.90
3360;DHT22;1693;49.602;11.046;2022-10-13T12:05:26;17.10;99.90
3360;DHT22;1693;49.602;11.046;2022-10-13T12:07:56;17.00;99.90
3360;DHT22;1693;49.602;11.046;2022-10-13T12:10:30;16.90;99.90
3360;DHT22;1693;49.602;11.046;2022-10-13T12:12:58;17.00;99.90
3360;DHT22;1693;49.602;11.046;2022-10-13T12:15:34;16.80;99.90
3360;DHT22;1693;49.602;11.046;2022-10-13T12:18:21;16.80;99.90
3360;DHT22;1693;49.602;11.046;2022-10-13T12:20:54;16.70;99.90
3360;DHT22;1693;49.602;11.046;2022-10-13T12:23:21;16.70;99.90
3360;DHT22;1693;49.602;11.046;2022-10-13T12:25:51;16.70;99.90
3360;DHT22;1693;49.602;11.046;2022-10-13T12:28:30;16.50;99.90
3360;DHT22;1693;49.602;11.046;2022-10-13T12:31:17;16.30;99.90
3360;DHT22;1693;49.602;11.046;2022-10-13T12:33:51;16.40;99.90
3360;DHT22;1693;49.602;11.046;2022-10-13T12:36:20;16.60;99.90
3360;DHT22;1693;49.602;11.046;2022-10-13T12:38:53;16.70;99.90
3360;DHT22;1693;49.602;11.046;2022-10-13T12:41:26;16.70;99.90
3360;DHT22;1693;49.602;11.046;2022-10-13T12:43:57;16.70;99.90
3360;DHT22;1693;49.602;11.046;2022-10-13T12:46:47;16.70;99.90
3360;DHT22;1693;49.602;11.046;2022-10-13T12:49:20;16.90;99.90
3360;DHT22;1693;49.602;11.046;2022-10-13T12:51:49;16.50;99.90
3360;DHT22;1693;49.602;11.046;2022-10-13T12:54:20;16.50;99.90
3360;DHT22;1693;49.602;11.046;2022-10-13T12:56:51;16.50;99.90
3360;DHT22;1693;49.602;11.046;2022-10-13T12:59:25;16.40;99.90
3360;DHT22;1693;49.602;11.046;2022-10-13T13:01:56;16.30;99.90
3360;DHT22;1693;49.602;11.046;2022-10-13T13:04:38;16.20;99.90
3360;DHT22;1693;49.602;11.046;2022-10-13T13:07:30;16.10;99.90
3360;DHT22;1693;49.602;11.046;2022-10-13T13:10:00;16.10;99.90
3360;DHT22;1693;49.602;11.046;2022-10-13T13:12:29;16.20;99.90
3360;DHT22;1693;49.602;11.046;2022-10-13T13:18:31;16.60;99.90
3360;DHT22;1693;49.602;11.046;2022-10-13T13:21:04;16.80;99.90
3360;DHT22;1693;49.602;11.046;2022-10-13T13:23:34;16.90;99.90
3360;DHT22;1693;49.602;11.046;2022-10-13T13:26:09;16.90;99.90
3360;DHT22;1693;49.602;11.046;2022-10-13T13:28:41;16.90;99.90
3360;DHT22;1693;49.602;11.046;2022-10-13T13:31:15;17.20;99.90
3360;DHT22;1693;49.602;11.046;2022-10-13T13:33:43;17.40;99.90
3360;DHT22;1693;49.602;11.046;2022-10-13T13:36:18;17.40;99.90
3360;DHT22;1693;49.602;11.046;2022-10-13T13:38:46;17.40;99.90
3360;DHT22;1693;49.602;11.046;2022-10-13T13:41:15;17.30;99.90
3360;DHT22;1693;49.602;11.046;2022-10-13T13:43:44;17.50;99.90
3360;DHT22;1693;49.602;11.046;2022-10-13T13:46:17;17.70;99.90
3360;DHT22;1693;49.602;11.046;2022-10-13T13:48:49;17.80;99.90
3360;DHT22;1693;49.602;11.046;2022-10-13T13:51:16;17.70;99.90
3360;DHT22;1693;49.602;11.046;2022-10-13T13:53:44;17.60;99.90
3360;DHT22;1693;49.602;11.046;2022-10-13T13:56:13;17.40;99.90
3360;DHT22;1693;49.602;11.046;2022-10-13T13:58:42;17.40;99.90
3360;DHT22;1693;49.602;11.046;2022-10-13T14:01:09;17.20;99.90
3360;DHT22;1693;49.602;11.046;2022-10-13T14:03:40;16.90;99.90
3360;DHT22;1693;49.602;11.046;2022-10-13T14:06:08;17.00;99.90
3360;DHT22;1693;49.602;11.046;2022-10-13T14:08:35;16.90;99.90
3360;DHT22;1693;49.602;11.046;2022-10-13T14:11:06;16.90;99.90
3360;DHT22;1693;49.602;11.046;2022-10-13T14:13:33;16.90;99.90
3360;DHT22;1693;49.602;11.046;2022-10-13T14:16:02;17.00;99.90
3360;DHT22;1693;49.602;11.046;2022-10-13T14:18:33;17.10;99.90
3360;DHT22;1693;49.602;11.046;2022-10-13T14:21:04;17.10;99.90
3360;DHT22;1693;49.602;11.046;2022-10-13T14:23:32;17.10;99.90
3360;DHT22;1693;49.602;11.046;2022-10-13T14:26:06;17.50;99.90
3360;DHT22;1693;49.602;11.046;2022-10-13T14:28:34;17.00;99.90
3360;DHT22;1693;49.602;11.046;2022-10-13T14:31:04;16.90;99.90
3360;DHT22;1693;49.602;11.046;2022-10-13T14:33:32;17.00;99.90
3360;DHT22;1693;49.602;11.046;2022-10-13T14:36:01;17.00;99.90
3360;DHT22;1693;49.602;11.046;2022-10-13T14:38:30;16.90;99.90
3360;DHT22;1693;49.602;11.046;2022-10-13T14:41:00;16.80;99.90
3360;DHT22;1693;49.602;11.046;2022-10-13T14:43:28;16.70;99.90
3360;DHT22;1693;49.602;11.046;2022-10-13T14:45:59;16.60;99.90
3360;DHT22;1693;49.602;11.046;2022-10-13T14:48:26;16.40;99.90
3360;DHT22;1693;49.602;11.046;2022-10-13T14:50:55;16.30;99.90
3360;DHT22;1693;49.602;11.046;2022-10-13T14:53:23;16.30;99.90
3360;DHT22;1693;49.602;11.046;2022-10-13T14:55:51;16.20;99.90
3360;DHT22;1693;49.602;11.046;2022-10-13T14:58:18;16.10;99.90
3360;DHT22;1693;49.602;11.046;2022-10-13T15:00:46;16.20;99.90
3360;DHT22;1693;49.602;11.046;2022-10-13T15:03:13;16.20;99.90
3360;DHT22;1693;49.602;11.046;2022-10-13T15:05:40;16.10;99.90
3360;DHT22;1693;49.602;11.046;2022-10-13T15:08:07;16.20;99.90
3360;DHT22;1693;49.602;11.046;2022-10-13T15:10:35;16.20;99.90
3360;DHT22;1693;49.602;11.046;2022-10-13T15:13:08;16.40;99.90
3360;DHT22;1693;49.602;11.046;2022-10-13T15:15:35;16.50;99.90
3360;DHT22;1693;49.602;11.046;2022-10-13T15:18:03;16.40;99.90
3360;DHT22;1693;49.602;11.046;2022-10-13T15:20:31;16.40;99.90
3360;DHT22;1693;49.602;11.046;2022-10-13T15:22:58;16.60;99.90
3360;DHT22;1693;49.602;11.046;2022-10-13T15:25:25;16.70;99.90
3360;DHT22;1693;49.602;11.046;2022-10-13T15:27:53;16.80;99.90
3360;DHT22;1693;49.602;11.046;2022-10-13T15:30:20;16.90;99.90
3360;DHT22;1693;49.602;11.046;2022-10-13T15:32:48;16.80;99.90
3360;DHT22;1693;49.602;11.046;2022-10-13T15:35:15;16.70;99.90
3360;DHT22;1693;49.602;11.046;2022-10-13T15:37:42;16.70;99.90
3360;DHT22;1693;49.602;11.046;2022-10-13T15:40:11;16.70;99.90
3360;DHT22;1693;49.602;11.046;2022-10-13T15:42:38;16.70;99.90
3360;DHT22;1693;49.602;11.046;2022-10-13T15:45:08;16.60;99.90
3360;DHT22;1693;49.602;11.046;2022-10-13T15:47:35;16.60;99.90
3360;DHT22;1693;49.602;11.046;2022-10-13T15:50:05;16.60;99.90
3360;DHT22;1693;49.602;11.046;2022-10-13T15:52:37;16.20;99.90
3360;DHT22;1693;49.602;11.046;2022-10-13T15:55:05;16.20;99.90
3360;DHT22;1693;49.602;11.046;2022-10-13T15:57:33;16.20;99.90
3360;DHT22;1693;49.602;11.046;2022-10-13T16:00:00;16.00;99.90
3360;DHT22;1693;49.602;11.046;2022-10-13T16:02:29;16.00;99.90
3360;DHT22;1693;49.602;11.046;2022-10-13T16:04:56;16.00;99.90
3360;DHT22;1693;49.602;11.046;2022-10-13T16:07:29;15.90;99.90
3360;DHT22;1693;49.602;11.046;2022-10-13T16:09:56;15.80;99.90
3360;DHT22;1693;49.602;11.046;2022-10-13T16:12:24;15.80;99.90
3360;DHT22;1693;49.602;11.046;2022-10-13T16:14:51;15.80;99.90
3360;DHT22;1693;49.602;11.046;2022-10-13T16:17:18;15.60;99.90
3360;DHT22;1693;49.602;11.046;2022-10-13T16:19:47;15.60;99.90
3360;DHT22;1693;49.602;11.046;2022-10-13T16:22:14;15.50;99.90
3360;DHT22;1693;49.602;11.046;2022-10-13T16:24:41;15.50;99.90
3360;DHT22;1693;49.602;11.046;2022-10-13T16:27:08;15.50;99.90
3360;DHT22;1693;49.602;11.046;2022-10-13T16:29:35;15.40;99.90
3360;DHT22;1693;49.602;11.046;2022-10-13T16:32:02;15.20;99.90
3360;DHT22;1693;49.602;11.046;2022-10-13T16:34:29;15.20;99.90
3360;DHT22;1693;49.602;11.046;2022-10-13T16:36:58;15.20;99.90
3360;DHT22;1693;49.602;11.046;2022-10-13T16:39:25;15.10;99.90
3360;DHT22;1693;49.602;11.046;2022-10-13T16:41:53;15.00;99.90
3360;DHT22;1693;49.602;11.046;2022-10-13T16:44:20;15.00;99.90
3360;DHT22;1693;49.602;11.046;2022-10-13T16:46:47;15.00;99.90